createdAt,value
2022-12-27T00:02:19.281Z,6.50
2022-12-27T00:04:46.468Z,6.50
2022-12-27T00:07:13.472Z,6.60
2022-12-27T00:09:40.540Z,6.60
2022-12-27T00:12:07.832Z,6.60
2022-12-27T00:14:34.923Z,6.60
2022-12-27T00:17:01.780Z,6.60
2022-12-27T00:19:28.679Z,6.60
2022-12-27T00:21:55.618Z,6.60
2022-12-27T00:24:22.506Z,6.70
2022-12-27T00:26:49.449Z,6.70
2022-12-27T00:29:16.518Z,6.70
2022-12-27T00:31:43.544Z,6.60
2022-12-27T00:34:11.194Z,6.60
2022-12-27T00:36:38.096Z,6.60
2022-12-27T00:39:05.225Z,6.60
2022-12-27T00:41:32.617Z,6.60
2022-12-27T00:43:59.512Z,6.50
2022-12-27T00:46:26.380Z,6.40
2022-12-27T00:48:53.755Z,6.50
2022-12-27T00:51:23.252Z,6.60
2022-12-27T00:53:51.740Z,6.70
2022-12-27T00:56:22.114Z,6.70
2022-12-27T00:58:53.615Z,6.70
2022-12-27T01:01:22.580Z,6.70
2022-12-27T01:03:49.683Z,6.60
2022-12-27T01:06:19.353Z,6.60
2022-12-27T01:08:47.200Z,6.60
2022-12-27T01:11:15.880Z,6.60
2022-12-27T01:13:43.509Z,6.70
2022-12-27T01:16:20.047Z,6.70
2022-12-27T01:18:47.746Z,6.70
2022-12-27T01:21:17.667Z,6.60
2022-12-27T01:23:45.226Z,6.60
2022-12-27T01:26:14.783Z,6.70
2022-12-27T01:28:41.826Z,6.60
2022-12-27T01:31:11.909Z,6.50
2022-12-27T01:33:39.352Z,6.50
2022-12-27T01:36:25.966Z,6.50
2022-12-27T01:38:53.347Z,6.60
2022-12-27T01:41:45.049Z,6.60
2022-12-27T01:44:33.572Z,6.60
2022-12-27T01:47:02.515Z,6.60
2022-12-27T01:49:29.759Z,6.60
2022-12-27T01:51:56.884Z,6.60
2022-12-27T01:54:24.242Z,6.60
2022-12-27T01:56:51.274Z,6.60
2022-12-27T01:59:18.392Z,6.50
2022-12-27T02:01:47.623Z,6.50
2022-12-27T02:04:18.916Z,6.50
2022-12-27T02:06:47.086Z,6.60
2022-12-27T02:09:43.149Z,6.70
2022-12-27T02:12:11.412Z,6.70
2022-12-27T02:14:43.268Z,6.70
2022-12-27T02:17:30.777Z,6.70
2022-12-27T02:20:14.475Z,6.70
2022-12-27T02:23:17.868Z,6.70
2022-12-27T02:26:05.051Z,6.70
2022-12-27T02:28:53.486Z,6.60
2022-12-27T02:31:34.151Z,6.70
2022-12-27T02:34:05.197Z,6.70
2022-12-27T02:36:35.940Z,6.80
2022-12-27T02:39:04.001Z,6.90
2022-12-27T02:41:52.244Z,6.90
2022-12-27T02:44:38.761Z,6.90
2022-12-27T02:47:52.673Z,7.00
2022-12-27T02:50:38.233Z,7.00
2022-12-27T02:53:22.893Z,7.10
2022-12-27T02:56:35.745Z,7.10
2022-12-27T02:59:04.855Z,7.10
2022-12-27T03:02:16.821Z,7.10
2022-12-27T03:05:05.671Z,7.20
2022-12-27T03:07:41.560Z,7.20
2022-12-27T03:10:52.729Z,7.20
2022-12-27T03:13:44.827Z,7.20
2022-12-27T03:16:34.714Z,7.20
2022-12-27T03:19:39.617Z,7.20
2022-12-27T03:22:27.628Z,7.20
2022-12-27T03:25:16.456Z,7.20
2022-12-27T03:27:45.466Z,7.20
2022-12-27T03:30:31.840Z,7.20
2022-12-27T03:33:13.885Z,7.20
2022-12-27T03:36:25.940Z,7.20
2022-12-27T03:39:03.247Z,7.20
2022-12-27T03:41:56.237Z,7.10
2022-12-27T03:44:26.088Z,6.90
2022-12-27T03:46:57.729Z,6.80
2022-12-27T03:49:34.186Z,6.80
2022-12-27T03:52:07.005Z,6.80
2022-12-27T03:54:37.743Z,6.80
2022-12-27T03:57:08.201Z,6.80
2022-12-27T03:59:35.337Z,6.80
2022-12-27T04:02:02.861Z,6.80
2022-12-27T04:04:30.197Z,6.70
2022-12-27T04:06:57.165Z,6.70
2022-12-27T04:09:42.688Z,6.60
2022-12-27T04:12:28.746Z,6.60
2022-12-27T04:15:14.393Z,6.50
2022-12-27T04:17:59.894Z,6.50
2022-12-27T04:20:45.521Z,6.40
2022-12-27T04:23:31.340Z,6.30
2022-12-27T04:26:16.872Z,6.30
2022-12-27T04:29:02.425Z,6.30
2022-12-27T04:31:47.921Z,6.20
2022-12-27T04:34:33.456Z,6.20
2022-12-27T04:37:00.391Z,6.10
2022-12-27T04:39:27.349Z,6.00
2022-12-27T04:42:13.091Z,5.90
2022-12-27T04:44:45.999Z,5.90
2022-12-27T04:47:34.242Z,5.80
2022-12-27T04:50:20.400Z,5.80
2022-12-27T04:53:06.858Z,5.70
2022-12-27T04:55:33.826Z,5.60
2022-12-27T04:58:00.823Z,5.50
2022-12-27T05:00:49.388Z,5.50
2022-12-27T05:03:20.436Z,5.50
2022-12-27T05:05:50.878Z,5.50
2022-12-27T05:08:38.774Z,5.50
2022-12-27T05:11:25.843Z,5.70
2022-12-27T05:14:01.915Z,5.90
2022-12-27T05:16:46.641Z,6.00
2022-12-27T05:19:15.030Z,6.10
2022-12-27T05:22:04.595Z,6.10
2022-12-27T05:24:51.168Z,6.10
2022-12-27T05:27:18.144Z,6.20
2022-12-27T05:29:46.029Z,6.20
2022-12-27T05:32:13.778Z,6.30
2022-12-27T05:34:41.251Z,6.40
2022-12-27T05:37:08.919Z,6.40
2022-12-27T05:39:36.088Z,6.50
2022-12-27T05:42:03.693Z,6.60
2022-12-27T05:44:30.581Z,6.80
2022-12-27T05:46:57.575Z,6.80
2022-12-27T05:49:24.496Z,7.00
2022-12-27T05:51:51.356Z,7.00
2022-12-27T05:54:18.233Z,7.10
2022-12-27T05:56:45.095Z,7.20
2022-12-27T05:59:12.009Z,7.30
2022-12-27T06:01:38.974Z,7.40
2022-12-27T06:04:06.062Z,7.40
2022-12-27T06:06:34.536Z,7.40
2022-12-27T06:09:01.430Z,7.40
2022-12-27T06:11:28.351Z,7.50
2022-12-27T06:13:55.341Z,7.50
2022-12-27T06:16:23.240Z,7.50
2022-12-27T06:18:50.535Z,7.60
2022-12-27T06:21:20.372Z,7.50
2022-12-27T06:23:48.700Z,7.50
2022-12-27T06:26:24.495Z,7.50
2022-12-27T06:28:52.127Z,7.60
2022-12-27T06:31:20.477Z,7.60
2022-12-27T06:33:48.893Z,7.60
2022-12-27T06:36:19.088Z,7.60
2022-12-27T06:38:46.712Z,7.70
2022-12-27T06:41:17.311Z,7.80
2022-12-27T06:43:45.218Z,7.70
2022-12-27T06:46:17.557Z,7.70
2022-12-27T06:48:45.725Z,7.80
2022-12-27T06:51:13.936Z,7.70
2022-12-27T06:53:40.848Z,7.80
2022-12-27T06:56:10.859Z,7.80
2022-12-27T06:58:38.130Z,7.80
2022-12-27T07:01:18.915Z,7.80
2022-12-27T07:03:50.773Z,7.80
2022-12-27T07:06:18.418Z,7.90
2022-12-27T07:08:46.214Z,7.90
2022-12-27T07:11:14.858Z,7.90
2022-12-27T07:13:45.261Z,8.00
2022-12-27T07:16:14.816Z,8.10
2022-12-27T07:18:42.792Z,8.20
2022-12-27T07:21:13.838Z,8.30
2022-12-27T07:23:40.773Z,8.50
2022-12-27T07:26:13.446Z,8.80
2022-12-27T07:28:40.784Z,9.10
2022-12-27T07:31:15.481Z,9.40
2022-12-27T07:33:42.996Z,9.70
2022-12-27T07:36:14.533Z,10.00
2022-12-27T07:38:41.485Z,10.20
2022-12-27T07:41:09.884Z,10.50
2022-12-27T07:43:37.095Z,10.70
2022-12-27T07:46:05.224Z,10.90
2022-12-27T07:48:32.400Z,11.10
2022-12-27T07:50:59.327Z,11.20
2022-12-27T07:53:26.238Z,11.40
2022-12-27T07:55:53.993Z,11.50
2022-12-27T07:58:21.609Z,11.60
2022-12-27T08:00:50.529Z,11.70
2022-12-27T08:03:18.260Z,11.80
2022-12-27T08:05:49.940Z,11.90
2022-12-27T08:08:19.808Z,12.00
2022-12-27T08:10:46.738Z,12.10
2022-12-27T08:13:13.645Z,12.10
2022-12-27T08:15:42.589Z,12.20
2022-12-27T08:18:09.855Z,12.30
2022-12-27T08:20:36.973Z,12.20
2022-12-27T08:23:03.980Z,12.30
2022-12-27T08:25:31.013Z,12.30
2022-12-27T08:28:05.911Z,12.30
2022-12-27T08:30:32.876Z,12.10
2022-12-27T08:33:02.356Z,11.80
2022-12-27T08:38:16.133Z,12.30
2022-12-27T08:40:45.135Z,12.80
2022-12-27T08:43:12.730Z,13.10
2022-12-27T08:45:40.258Z,13.30
2022-12-27T08:48:07.711Z,13.50
2022-12-27T08:50:34.646Z,13.80
2022-12-27T08:53:03.740Z,13.80
2022-12-27T08:55:31.687Z,14.00
2022-12-27T08:58:12.221Z,14.00
2022-12-27T09:00:42.805Z,14.20
2022-12-27T09:03:10.476Z,14.20
2022-12-27T09:05:41.595Z,14.20
2022-12-27T09:08:08.833Z,14.40
2022-12-27T09:10:35.738Z,14.40
2022-12-27T09:13:02.703Z,14.40
2022-12-27T09:15:29.765Z,14.30
2022-12-27T09:17:56.706Z,14.40
2022-12-27T09:20:24.120Z,14.40
2022-12-27T09:22:52.208Z,14.40
2022-12-27T09:25:19.658Z,14.10
2022-12-27T09:27:46.628Z,14.00
2022-12-27T09:30:13.823Z,13.90
2022-12-27T09:32:40.757Z,14.00
2022-12-27T09:35:07.962Z,14.10
2022-12-27T09:37:34.879Z,14.00
2022-12-27T09:40:01.791Z,14.00
2022-12-27T09:43:02.689Z,14.10
2022-12-27T09:45:47.066Z,14.30
2022-12-27T09:48:26.200Z,14.40
2022-12-27T09:51:02.147Z,14.40
2022-12-27T09:53:59.678Z,14.30
2022-12-27T09:56:47.296Z,14.20
2022-12-27T09:59:33.162Z,14.20
2022-12-27T10:02:00.267Z,14.20
2022-12-27T10:04:52.981Z,14.20
2022-12-27T10:07:28.915Z,14.20
2022-12-27T10:10:23.582Z,14.00
2022-12-27T10:13:09.064Z,13.70
2022-12-27T10:16:34.948Z,13.50
2022-12-27T10:19:06.356Z,13.30
2022-12-27T10:21:38.366Z,13.30
2022-12-27T10:24:26.268Z,13.20
2022-12-27T10:26:55.561Z,13.00
2022-12-27T10:29:24.602Z,12.90
2022-12-27T10:31:52.081Z,12.70
2022-12-27T10:34:24.812Z,12.50
2022-12-27T10:36:53.080Z,12.30
2022-12-27T10:39:26.693Z,11.90
2022-12-27T10:42:15.395Z,11.70
2022-12-27T10:44:42.381Z,11.50
2022-12-27T10:47:09.386Z,11.30
2022-12-27T10:49:38.567Z,11.10
2022-12-27T10:52:21.077Z,10.90
2022-12-27T10:54:53.148Z,10.70
2022-12-27T10:57:33.486Z,10.40
2022-12-27T11:00:22.620Z,10.20
2022-12-27T11:02:57.343Z,10.10
2022-12-27T11:05:29.014Z,10.10
2022-12-27T11:07:56.357Z,10.10
2022-12-27T11:10:27.837Z,10.00
2022-12-27T11:13:15.102Z,10.00
2022-12-27T11:15:44.812Z,10.00
2022-12-27T11:18:18.432Z,10.10
2022-12-27T11:20:58.010Z,10.10
2022-12-27T11:23:30.564Z,10.20
2022-12-27T11:26:03.015Z,10.30
2022-12-27T11:28:40.710Z,10.40
2022-12-27T11:31:14.547Z,10.40
2022-12-27T11:33:46.272Z,10.50
2022-12-27T11:36:15.894Z,10.50
2022-12-27T11:38:49.569Z,10.40
2022-12-27T11:41:31.880Z,10.50
2022-12-27T11:44:32.586Z,10.40
2022-12-27T11:47:08.957Z,10.50
2022-12-27T11:49:53.774Z,10.40
2022-12-27T11:52:54.799Z,10.40
2022-12-27T11:55:56.817Z,10.30
2022-12-27T11:58:45.023Z,10.20
2022-12-27T12:01:36.026Z,10.10
2022-12-27T12:04:40.333Z,10.00
2022-12-27T12:07:31.472Z,10.00
2022-12-27T12:10:04.203Z,9.90
2022-12-27T12:12:58.692Z,9.80
2022-12-27T12:16:04.166Z,9.70
2022-12-27T12:19:04.131Z,9.70
2022-12-27T12:21:49.116Z,9.70
2022-12-27T12:24:37.342Z,9.60
2022-12-27T12:27:22.451Z,9.60
2022-12-27T12:30:11.588Z,9.50
2022-12-27T12:33:06.732Z,9.50
2022-12-27T12:36:01.734Z,9.60
2022-12-27T12:38:51.816Z,9.40
2022-12-27T12:41:46.191Z,9.40
2022-12-27T12:44:15.908Z,9.30
2022-12-27T12:47:05.656Z,9.20
2022-12-27T12:49:51.244Z,9.10
2022-12-27T12:52:28.418Z,9.10
2022-12-27T12:55:03.279Z,9.00
2022-12-27T12:57:36.433Z,9.00
2022-12-27T13:00:09.220Z,9.00
2022-12-27T13:02:54.087Z,8.90
2022-12-27T13:05:38.811Z,8.90
2022-12-27T13:08:32.523Z,8.90
2022-12-27T13:11:19.621Z,8.90
2022-12-27T13:14:08.904Z,8.80
2022-12-27T13:16:55.888Z,8.70
2022-12-27T13:19:59.619Z,8.70
2022-12-27T13:23:16.008Z,8.60
2022-12-27T13:25:50.202Z,8.50
2022-12-27T13:28:54.377Z,8.40
2022-12-27T13:31:45.952Z,8.40
2022-12-27T13:34:37.257Z,8.30
2022-12-27T13:37:18.954Z,8.20
2022-12-27T13:40:04.272Z,8.20
2022-12-27T13:42:52.093Z,8.30
2022-12-27T13:45:56.256Z,8.20
2022-12-27T13:48:43.889Z,8.20
2022-12-27T13:51:41.728Z,8.10
2022-12-27T13:54:33.909Z,8.10
2022-12-27T13:57:24.944Z,8.10
2022-12-27T14:00:20.953Z,8.00
2022-12-27T14:03:09.472Z,8.00
2022-12-27T14:06:05.324Z,7.90
2022-12-27T14:08:58.891Z,7.90
2022-12-27T14:11:53.595Z,7.90
2022-12-27T14:14:23.897Z,7.80
2022-12-27T14:17:32.324Z,7.70
2022-12-27T14:20:14.398Z,7.70
2022-12-27T14:23:13.613Z,7.70
2022-12-27T14:26:30.392Z,7.70
2022-12-27T14:29:06.459Z,7.70
2022-12-27T14:32:21.986Z,7.60
2022-12-27T14:35:07.374Z,7.50
2022-12-27T14:37:55.957Z,7.40
2022-12-27T14:40:43.946Z,7.40
2022-12-27T14:43:47.743Z,7.30
2022-12-27T14:46:36.072Z,7.30
2022-12-27T14:49:40.737Z,7.20
2022-12-27T14:52:48.751Z,7.20
2022-12-27T14:55:29.352Z,7.10
2022-12-27T14:58:06.362Z,7.00
2022-12-27T15:00:57.715Z,7.00
2022-12-27T15:03:34.637Z,6.90
2022-12-27T15:06:07.796Z,6.90
2022-12-27T15:08:53.651Z,6.90
2022-12-27T15:11:26.447Z,6.80
2022-12-27T15:14:30.922Z,6.80
2022-12-27T15:17:42.172Z,6.80
2022-12-27T15:20:31.533Z,6.70
2022-12-27T15:23:01.394Z,6.70
2022-12-27T15:25:52.073Z,6.60
2022-12-27T15:28:51.250Z,6.50
2022-12-27T15:31:31.861Z,6.40
2022-12-27T15:34:28.018Z,6.30
2022-12-27T15:36:55.183Z,6.40
2022-12-27T15:39:34.502Z,6.40
2022-12-27T15:42:22.978Z,6.40
2022-12-27T15:45:21.553Z,6.30
2022-12-27T15:47:57.532Z,6.30
2022-12-27T15:50:49.266Z,6.30
2022-12-27T15:53:16.194Z,6.20
2022-12-27T15:56:03.413Z,6.20
2022-12-27T15:58:30.643Z,6.20
2022-12-27T16:01:22.204Z,6.10
2022-12-27T16:03:53.773Z,6.10
2022-12-27T16:06:51.162Z,6.00
2022-12-27T16:09:35.700Z,6.00
2022-12-27T16:12:13.226Z,6.00
2022-12-27T16:14:42.451Z,6.00
2022-12-27T16:17:30.439Z,6.00
2022-12-27T16:20:10.260Z,5.90
2022-12-27T16:22:44.518Z,5.90
2022-12-27T16:25:38.759Z,5.90
2022-12-27T16:28:08.133Z,5.90
2022-12-27T16:30:54.204Z,5.80
2022-12-27T16:33:22.447Z,5.80
2022-12-27T16:36:16.336Z,5.80
2022-12-27T16:38:48.698Z,5.70
2022-12-27T16:41:56.679Z,5.70
2022-12-27T16:44:44.806Z,5.70
2022-12-27T16:47:49.601Z,5.70
2022-12-27T16:50:40.730Z,5.70
2022-12-27T16:53:23.605Z,5.70
2022-12-27T16:56:11.578Z,5.70
2022-12-27T16:58:39.808Z,5.70
2022-12-27T17:01:26.756Z,5.70
2022-12-27T17:03:54.996Z,5.60
2022-12-27T17:06:37.197Z,5.60
2022-12-27T17:09:10.538Z,5.60
2022-12-27T17:11:40.347Z,5.60
2022-12-27T17:14:22.435Z,5.60
2022-12-27T17:16:53.949Z,5.50
2022-12-27T17:19:30.710Z,5.50
2022-12-27T17:22:01.870Z,5.50
2022-12-27T17:24:30.274Z,5.50
2022-12-27T17:27:09.546Z,5.50
2022-12-27T17:29:57.708Z,5.50
2022-12-27T17:32:27.749Z,5.50
2022-12-27T17:35:25.843Z,5.50
2022-12-27T17:38:08.005Z,5.50
2022-12-27T17:41:00.201Z,5.50
2022-12-27T17:44:21.983Z,5.50
2022-12-27T17:47:15.711Z,5.40
2022-12-27T17:49:43.497Z,5.40
2022-12-27T17:52:39.632Z,5.30
2022-12-27T17:55:43.765Z,5.20
2022-12-27T17:58:13.697Z,5.10
2022-12-27T18:00:57.398Z,5.00
2022-12-27T18:03:39.682Z,4.90
2022-12-27T18:06:07.015Z,4.80
2022-12-27T18:08:36.325Z,4.80
2022-12-27T18:11:06.062Z,4.70
2022-12-27T18:13:40.265Z,4.50
2022-12-27T18:16:21.493Z,4.40
2022-12-27T18:18:51.475Z,4.30
2022-12-27T18:21:29.796Z,4.20
2022-12-27T18:23:57.300Z,4.10
2022-12-27T18:26:39.699Z,4.10
2022-12-27T18:29:11.932Z,4.00
2022-12-27T18:31:39.720Z,3.90
2022-12-27T18:34:09.009Z,3.80
2022-12-27T18:36:39.758Z,3.80
2022-12-27T18:39:22.057Z,3.70
2022-12-27T18:41:52.585Z,3.60
2022-12-27T18:44:27.350Z,3.60
2022-12-27T18:47:00.212Z,3.70
2022-12-27T18:49:33.142Z,3.60
2022-12-27T18:52:01.377Z,3.50
2022-12-27T18:54:28.321Z,3.50
2022-12-27T18:57:01.248Z,3.50
2022-12-27T18:59:31.723Z,3.50
2022-12-27T19:02:03.778Z,3.50
2022-12-27T19:04:32.888Z,3.60
2022-12-27T19:07:14.418Z,3.80
2022-12-27T19:09:50.050Z,3.90
2022-12-27T19:12:39.668Z,4.00
2022-12-27T19:15:22.113Z,4.00
2022-12-27T19:17:52.726Z,4.00
2022-12-27T19:20:29.816Z,4.00
2022-12-27T19:23:00.409Z,3.90
2022-12-27T19:25:31.782Z,3.90
2022-12-27T19:28:03.136Z,3.90
2022-12-27T19:31:16.423Z,3.90
2022-12-27T19:33:48.189Z,3.80
2022-12-27T19:36:40.468Z,3.60
2022-12-27T19:39:35.175Z,3.50
2022-12-27T19:42:17.423Z,3.40
2022-12-27T19:44:55.771Z,3.20
2022-12-27T19:47:36.368Z,3.10
2022-12-27T19:50:16.789Z,2.80
2022-12-27T19:52:52.021Z,2.70
2022-12-27T19:55:30.706Z,2.60
2022-12-27T19:58:10.131Z,2.60
2022-12-27T20:00:49.562Z,2.60
2022-12-27T20:03:29.293Z,2.70
2022-12-27T20:06:20.856Z,2.70
2022-12-27T20:09:05.096Z,2.70
2022-12-27T20:11:45.235Z,2.80
2022-12-27T20:17:38.338Z,2.90
2022-12-27T20:20:10.561Z,3.00
2022-12-27T20:22:37.506Z,3.00
2022-12-27T20:25:04.796Z,2.90
2022-12-27T20:27:31.758Z,2.80
2022-12-27T20:29:58.854Z,2.70
2022-12-27T20:32:26.196Z,2.70
2022-12-27T20:34:53.393Z,2.60
2022-12-27T20:37:24.497Z,2.70
2022-12-27T20:39:52.585Z,2.50
2022-12-27T20:42:20.327Z,2.40
2022-12-27T20:44:47.726Z,2.40
2022-12-27T20:47:15.550Z,2.40
2022-12-27T20:49:43.255Z,2.50
2022-12-27T20:52:10.290Z,2.60
2022-12-27T20:54:37.469Z,2.50
2022-12-27T20:57:04.925Z,2.50
2022-12-27T20:59:31.969Z,2.40
2022-12-27T21:02:00.397Z,2.30
2022-12-27T21:04:27.465Z,2.20
2022-12-27T21:06:54.391Z,2.20
2022-12-27T21:09:21.340Z,2.10
2022-12-27T21:11:52.229Z,2.20
2022-12-27T21:14:19.210Z,2.10
2022-12-27T21:16:46.453Z,2.10
2022-12-27T21:19:13.607Z,2.10
2022-12-27T21:21:40.570Z,2.20
2022-12-27T21:24:10.806Z,2.30
2022-12-27T21:26:39.534Z,2.20
2022-12-27T21:29:09.385Z,2.20
2022-12-27T21:31:37.509Z,2.20
2022-12-27T21:34:05.355Z,2.10
2022-12-27T21:36:34.265Z,1.90
2022-12-27T21:39:02.164Z,1.80
2022-12-27T21:41:33.131Z,1.80
2022-12-27T21:44:00.654Z,1.70
2022-12-27T21:46:30.704Z,1.70
2022-12-27T21:49:09.732Z,1.80
2022-12-27T21:51:37.715Z,1.80
2022-12-27T21:54:04.872Z,1.70
2022-12-27T21:56:31.878Z,1.70
2022-12-27T21:58:59.932Z,1.70
2022-12-27T22:01:29.895Z,1.60
2022-12-27T22:03:58.074Z,1.60
2022-12-27T22:06:30.889Z,1.60
2022-12-27T22:09:00.794Z,1.60
2022-12-27T22:11:29.133Z,1.60
2022-12-27T22:13:56.803Z,1.60
2022-12-27T22:16:28.665Z,1.60
2022-12-27T22:18:58.652Z,1.60
2022-12-27T22:21:30.624Z,1.50
2022-12-27T22:23:59.945Z,1.60
2022-12-27T22:26:32.018Z,1.50
2022-12-27T22:28:59.069Z,1.50
2022-12-27T22:31:32.908Z,1.50
2022-12-27T22:33:59.932Z,1.40
2022-12-27T22:36:27.655Z,1.40
2022-12-27T22:38:59.151Z,1.30
2022-12-27T22:41:28.671Z,1.40
2022-12-27T22:43:59.102Z,1.40
2022-12-27T22:46:27.562Z,1.40
2022-12-27T22:48:57.208Z,1.40
2022-12-27T22:51:27.388Z,1.40
2022-12-27T22:53:55.812Z,1.40
2022-12-27T22:56:31.801Z,1.30
2022-12-27T22:58:59.514Z,1.40
2022-12-27T23:01:29.260Z,1.40
2022-12-27T23:03:57.849Z,1.40
2022-12-27T23:06:25.857Z,1.30
2022-12-27T23:08:53.011Z,1.30
2022-12-27T23:11:22.707Z,1.30
2022-12-27T23:13:55.253Z,1.30
2022-12-27T23:16:22.371Z,1.20
2022-12-27T23:18:49.405Z,1.10
2022-12-27T23:21:20.058Z,1.10
2022-12-27T23:23:50.468Z,1.20
2022-12-27T23:26:19.830Z,1.30
2022-12-27T23:28:47.988Z,1.30
2022-12-27T23:31:15.895Z,1.20
2022-12-27T23:33:44.464Z,1.10
2022-12-27T23:36:13.473Z,1.10
2022-12-27T23:38:45.176Z,1.10
2022-12-27T23:41:19.405Z,1.00
2022-12-27T23:43:52.851Z,0.90
2022-12-27T23:46:30.623Z,0.90
2022-12-27T23:49:00.473Z,0.90
2022-12-27T23:51:28.595Z,0.90
2022-12-27T23:53:55.518Z,1.00
2022-12-27T23:56:27.829Z,1.00
2022-12-27T23:58:56.031Z,1.10
